Flight Track Log - Related Links

Times and Time Zones

All times are in EDT time to prevent confusion due to time zone crossing. See the EGF4234 flight status page for this flight to view local times or setup timezone preferences in your user account.

Time Position Orientation Groundspeed Altitude Reporting Facility
EDT Latitude Longitude Course Direction KTS MPH feet Rate Location/Type
Wed 08:23:15 AM 41.9573 -87.9031 162° South  Level FlightAware Approximate
Wed 08:24:08 AM 41.9500 -87.9000 206° Southwest 219 252 1,400  Level Chicago TRACON
Wed 08:25:02 AM 41.9000 -87.9333 194° South 181 208 3,400 2,053 Climbing Chicago TRACON
Wed 08:26:02 AM 41.8500 -87.9500 193° South 236 272 5,300 1,882 Climbing Chicago TRACON
Wed 08:26:44 AM 41.8083 -87.9625 189° South 253 291 6,600 2,176 Climbing Chicago Center
Wed 08:27:44 AM 41.7356 -87.9781 187° South 263 303 9,000 2,300 Climbing Chicago Center
Wed 08:28:44 AM 41.6544 -87.9908 187° South 275 316 11,200 2,300 Climbing Chicago Center
Wed 08:29:44 AM 41.5733 -88.0039 188° South 294 338 13,600 1,900 Climbing Chicago Center
Wed 08:30:44 AM 41.4881 -88.0194 188° South 299 344 15,000 1,350 Climbing Chicago Center
Wed 08:31:44 AM 41.3883 -88.0381 195° South 313 360 16,300 1,300 Climbing Chicago Center
Wed 08:32:44 AM 41.2969 -88.0703 194° South 356 410 17,600 1,150 Climbing Chicago Center
Wed 08:33:44 AM 41.1972 -88.1025 192° South 362 417 18,600 1,000 Climbing Chicago Center
Wed 08:34:44 AM 41.0975 -88.1294 202° Southwest 373 429 19,600 1,200 Climbing Chicago Center
Wed 08:35:44 AM 41.0019 -88.1806 204° Southwest 373 429 21,000 1,450 Climbing Chicago Center
Wed 08:36:44 AM 40.9067 -88.2372 205° Southwest 378 435 22,500 1,450 Climbing Chicago Center
Wed 08:37:44 AM 40.8114 -88.2964 204° Southwest 378 435 23,900 1,400 Climbing Chicago Center
Wed 08:38:44 AM 40.7139 -88.3528 205° Southwest 378 435 25,300 1,418 Climbing Chicago Center
Wed 08:40:29 AM 40.5511 -88.4506 206° Southwest 377 434 27,800 1,455 Climbing Kansas City Center
Wed 08:41:29 AM 40.4603 -88.5075 205° Southwest 372 428 29,300 1,350 Climbing Kansas City Center
Wed 08:42:29 AM 40.3694 -88.5642 204° Southwest 372 428 30,500 1,300 Climbing Kansas City Center
Wed 08:43:29 AM 40.2742 -88.6186 204° Southwest 377 434 31,900 1,200 Climbing Kansas City Center
Wed 08:44:29 AM 40.1789 -88.6753 203° Southwest 377 434 32,900 1,050 Climbing Kansas City Center
Wed 08:45:29 AM 40.0817 -88.7294 205° Southwest 377 434 34,000 550 Climbing Kansas City Center
Wed 08:46:29 AM 39.9822 -88.7889 204° Southwest 382 440 34,000  Level Kansas City Center
Wed 08:47:29 AM 39.8808 -88.8486 205° Southwest 394 453 34,000  Level Kansas City Center
Wed 08:48:29 AM 39.7797 -88.9106 205° Southwest 394 453 34,000  Level Kansas City Center
Wed 08:49:29 AM 39.6803 -88.9697 204° Southwest 400 460 34,000 300 Level Kansas City Center
Wed 08:50:29 AM 39.5786 -89.0286 203° Southwest 400 460 34,600 800 Climbing Kansas City Center
Wed 08:51:29 AM 39.4769 -89.0847 204° Southwest 400 460 35,600 700 Climbing Kansas City Center
Wed 08:52:29 AM 39.3733 -89.1436 207° Southwest 405 466 36,000 200 Climbing Kansas City Center
Wed 08:53:29 AM 39.2719 -89.2103 201° Southwest 405 466 36,000  Level Kansas City Center
Wed 08:54:29 AM 39.1761 -89.2575 206° Southwest 397 457 36,000  Level Kansas City Center
Wed 08:55:29 AM 39.0686 -89.3239 204° Southwest 391 450 36,000  Level Kansas City Center
Wed 08:56:29 AM 38.9647 -89.3822 205° Southwest 391 450 36,000  Level Kansas City Center
Wed 08:57:29 AM 38.8669 -89.4397 204° Southwest 391 450 36,000  Level Kansas City Center
Wed 08:58:29 AM 38.7653 -89.4972 204° Southwest 391 450 36,000 -150 Level Kansas City Center
Wed 08:59:29 AM 38.6656 -89.5547 203° Southwest 391 450 35,700 -500 Descending Kansas City Center
Wed 09:00:29 AM 38.5614 -89.6122 204° Southwest 397 457 35,000 -350 Descending Kansas City Center
Wed 09:01:29 AM 38.4678 -89.6661 203° Southwest 402 463 35,000 -400 Level Kansas City Center
Wed 09:02:29 AM 38.3514 -89.7294 206° Southwest 413 475 34,200 -500 Descending Kansas City Center
Wed 09:03:29 AM 38.2619 -89.7853 203° Southwest 413 475 34,000 -100 Descending Kansas City Center
Wed 09:04:29 AM 38.1456 -89.8481 204° Southwest 413 475 34,000  Level Kansas City Center
Wed 09:05:29 AM 38.0494 -89.9017 204° Southwest 413 475 34,000  Level Kansas City Center
Wed 09:06:29 AM 37.9331 -89.9667 204° Southwest 418 481 34,000  Level Kansas City Center
Wed 09:07:29 AM 37.8369 -90.0200 205° Southwest 418 481 34,000 -429 Level Kansas City Center
Wed 09:09:31 AM 37.6214 -90.1447 203° Southwest 416 479 32,700 -659 Descending Memphis Center
Wed 09:10:31 AM 37.5150 -90.2025 203° Southwest 422 486 32,000 -350 Descending Memphis Center
Wed 09:11:31 AM 37.4111 -90.2575 204° Southwest 417 480 32,000  Level Memphis Center
Wed 09:12:31 AM 37.3028 -90.3178 204° Southwest 422 486 32,000  Level Memphis Center
Wed 09:13:31 AM 37.1839 -90.3828 203° Southwest 422 486 32,000  Level Memphis Center
Wed 09:14:31 AM 37.0881 -90.4350 204° Southwest 422 486 32,000 -150 Level Memphis Center
Wed 09:15:31 AM 36.9819 -90.4944 203° Southwest 422 486 31,700 -650 Descending Memphis Center
Wed 09:16:31 AM 36.8733 -90.5514 204° Southwest 422 486 30,700 -850 Descending Memphis Center
Wed 09:17:31 AM 36.7650 -90.6108 202° Southwest 422 486 30,000 -350 Descending Memphis Center
Wed 09:18:31 AM 36.6586 -90.6647 201° Southwest 422 486 30,000 -50 Level Memphis Center
Wed 09:19:31 AM 36.5542 -90.7133 179° South 417 480 29,900 -800 Descending Memphis Center
Wed 09:20:31 AM 36.4333 -90.7103 176° South 412 474 28,400 -1,450 Descending Memphis Center
Wed 09:21:31 AM 36.3083 -90.6994 177° South 437 503 27,000 -1,450 Descending Memphis Center
Wed 09:22:31 AM 36.1833 -90.6914 177° South 445 512 25,500 -1,600 Descending Memphis Center
Wed 09:23:31 AM 36.0603 -90.6831 177° South 453 521 23,800 -2,050 Descending Memphis Center
Wed 09:24:31 AM 35.9392 -90.6750 178° South 453 521 21,400 -2,450 Descending Memphis Center
Wed 09:25:31 AM 35.8206 -90.6694 176° South 440 506 18,900 -2,400 Descending Memphis Center
Wed 09:26:31 AM 35.7078 -90.6586 177° South 427 491 16,600 -2,600 Descending Memphis Center
Wed 09:27:31 AM 35.5931 -90.6506 179° South 391 450 13,700 -2,300 Descending Memphis Center
Wed 09:28:31 AM 35.4889 -90.6478 146° Southeast 386 444 12,000 -950 Descending Memphis Center
Wed 09:29:31 AM 35.4036 -90.5761 125° Southeast 360 414 11,800 -500 Descending Memphis Center
Wed 09:30:31 AM 35.3494 -90.4819 129° Southeast 360 414 11,000 -900 Descending Memphis Center
Wed 09:31:31 AM 35.2828 -90.3825 130° Southeast 373 429 10,000 -550 Descending Memphis Center
Wed 09:32:31 AM 35.2158 -90.2833 130° Southeast 379 436 9,900 -100 Descending Memphis Center
Wed 09:33:31 AM 35.1575 -90.1969 131° Southeast 361 415 9,800 -850 Descending Memphis Center
Wed 09:34:31 AM 35.1031 -90.1211 169° South 314 361 8,200 -1,161 Descending Memphis Center
Wed 09:35:04 AM 35.0594 -90.1103 180° South 271 312 8,000 -750 Descending FAA TRACON SMA TRACON (SMA)
Wed 09:35:43 AM 35.0114 -90.1106 182° South 250 288 7,300 -1,425 Descending FAA TRACON SMA TRACON (SMA)
Wed 09:36:24 AM 34.9697 -90.1119 180° South 244 281 6,100 -1,725 Descending FAA TRACON SMA TRACON (SMA)
Wed 09:37:03 AM 34.9233 -90.1122 178° South 241 277 5,000 -1,425 Descending FAA TRACON SMA TRACON (SMA)
Wed 09:37:44 AM 34.8775 -90.1106 131° Southeast 239 275 4,200 -659 Descending FAA TRACON SMA TRACON (SMA)
Wed 09:38:25 AM 34.8550 -90.0792 80° East 218 251 4,100 -370 Descending FAA TRACON SMA TRACON (SMA)
Wed 09:39:05 AM 34.8617 -90.0333 80° East 202 232 3,700 -600 Descending FAA TRACON SMA TRACON (SMA)

Login

Don't have an account? Register now (free) for customized features, flight alerts, and more!